sensor_id;sensor_type;location;lat;lon;timestamp;temperature;humidity
21811;DHT22;11067;48.788;9.208;2023-10-08T00:01:15;15.00;99.90
21811;DHT22;11067;48.788;9.208;2023-10-08T00:03:44;14.80;99.90
21811;DHT22;11067;48.788;9.208;2023-10-08T00:06:19;14.70;99.90
21811;DHT22;11067;48.788;9.208;2023-10-08T00:08:46;14.60;99.90
21811;DHT22;11067;48.788;9.208;2023-10-08T00:11:12;14.60;99.90
21811;DHT22;11067;48.788;9.208;2023-10-08T00:13:38;14.60;99.90
21811;DHT22;11067;48.788;9.208;2023-10-08T00:16:07;14.60;99.90
21811;DHT22;11067;48.788;9.208;2023-10-08T00:18:37;14.50;99.90
21811;DHT22;11067;48.788;9.208;2023-10-08T00:21:06;14.40;99.90
21811;DHT22;11067;48.788;9.208;2023-10-08T00:23:35;14.30;99.90
21811;DHT22;11067;48.788;9.208;2023-10-08T00:26:04;14.40;99.90
21811;DHT22;11067;48.788;9.208;2023-10-08T00:28:30;14.40;99.90
21811;DHT22;11067;48.788;9.208;2023-10-08T00:30:57;14.50;99.90
21811;DHT22;11067;48.788;9.208;2023-10-08T00:33:23;14.40;99.90
21811;DHT22;11067;48.788;9.208;2023-10-08T00:35:49;14.50;99.90
21811;DHT22;11067;48.788;9.208;2023-10-08T00:38:15;14.50;99.90
21811;DHT22;11067;48.788;9.208;2023-10-08T00:40:42;14.50;99.90
21811;DHT22;11067;48.788;9.208;2023-10-08T00:43:28;14.60;99.90
21811;DHT22;11067;48.788;9.208;2023-10-08T00:45:54;14.60;99.90
21811;DHT22;11067;48.788;9.208;2023-10-08T00:48:20;14.60;99.90
21811;DHT22;11067;48.788;9.208;2023-10-08T00:50:47;14.50;99.90
21811;DHT22;11067;48.788;9.208;2023-10-08T00:53:13;14.50;99.90
21811;DHT22;11067;48.788;9.208;2023-10-08T00:55:49;14.50;99.90
21811;DHT22;11067;48.788;9.208;2023-10-08T00:58:25;14.40;99.90
21811;DHT22;11067;48.788;9.208;2023-10-08T01:00:53;14.40;99.90
21811;DHT22;11067;48.788;9.208;2023-10-08T01:03:25;14.40;99.90
21811;DHT22;11067;48.788;9.208;2023-10-08T01:05:53;14.30;99.90
21811;DHT22;11067;48.788;9.208;2023-10-08T01:08:19;14.30;99.90
21811;DHT22;11067;48.788;9.208;2023-10-08T01:10:59;14.40;99.90
21811;DHT22;11067;48.788;9.208;2023-10-08T01:13:26;14.40;99.90
21811;DHT22;11067;48.788;9.208;2023-10-08T01:15:52;14.30;99.90
21811;DHT22;11067;48.788;9.208;2023-10-08T01:18:18;14.30;99.90
21811;DHT22;11067;48.788;9.208;2023-10-08T01:20:54;14.30;99.90
21811;DHT22;11067;48.788;9.208;2023-10-08T01:23:21;14.30;99.90
21811;DHT22;11067;48.788;9.208;2023-10-08T01:25:49;14.10;99.90
21811;DHT22;11067;48.788;9.208;2023-10-08T01:28:21;14.10;99.90
21811;DHT22;11067;48.788;9.208;2023-10-08T01:30:55;14.00;99.90
21811;DHT22;11067;48.788;9.208;2023-10-08T01:33:22;14.00;99.90
21811;DHT22;11067;48.788;9.208;2023-10-08T01:35:51;14.00;99.90
21811;DHT22;11067;48.788;9.208;2023-10-08T01:38:17;13.90;99.90
21811;DHT22;11067;48.788;9.208;2023-10-08T01:40:51;13.80;99.90
21811;DHT22;11067;48.788;9.208;2023-10-08T01:43:17;13.80;99.90
21811;DHT22;11067;48.788;9.208;2023-10-08T01:45:43;13.80;99.90
21811;DHT22;11067;48.788;9.208;2023-10-08T01:48:14;13.90;99.90
21811;DHT22;11067;48.788;9.208;2023-10-08T01:50:40;13.80;99.90
21811;DHT22;11067;48.788;9.208;2023-10-08T01:53:06;13.90;99.90
21811;DHT22;11067;48.788;9.208;2023-10-08T01:55:35;13.80;99.90
21811;DHT22;11067;48.788;9.208;2023-10-08T01:58:14;13.70;99.90
21811;DHT22;11067;48.788;9.208;2023-10-08T02:00:48;13.70;99.90
21811;DHT22;11067;48.788;9.208;2023-10-08T02:03:15;13.70;99.90
21811;DHT22;11067;48.788;9.208;2023-10-08T02:05:45;13.70;99.90
21811;DHT22;11067;48.788;9.208;2023-10-08T02:08:12;13.70;99.90
21811;DHT22;11067;48.788;9.208;2023-10-08T02:10:39;13.70;99.90
21811;DHT22;11067;48.788;9.208;2023-10-08T02:13:07;13.80;99.90
21811;DHT22;11067;48.788;9.208;2023-10-08T02:15:34;13.70;99.90
21811;DHT22;11067;48.788;9.208;2023-10-08T02:17:59;13.60;99.90
21811;DHT22;11067;48.788;9.208;2023-10-08T02:20:25;13.50;99.90
21811;DHT22;11067;48.788;9.208;2023-10-08T02:22:53;13.40;99.90
21811;DHT22;11067;48.788;9.208;2023-10-08T02:25:19;13.40;99.90
21811;DHT22;11067;48.788;9.208;2023-10-08T02:27:44;13.20;99.90
21811;DHT22;11067;48.788;9.208;2023-10-08T02:30:10;13.10;99.90
21811;DHT22;11067;48.788;9.208;2023-10-08T02:32:38;13.00;99.90
21811;DHT22;11067;48.788;9.208;2023-10-08T02:35:03;13.00;99.90
21811;DHT22;11067;48.788;9.208;2023-10-08T02:37:29;13.00;99.90
21811;DHT22;11067;48.788;9.208;2023-10-08T02:39:55;13.10;99.90
21811;DHT22;11067;48.788;9.208;2023-10-08T02:42:21;13.10;99.90
21811;DHT22;11067;48.788;9.208;2023-10-08T02:44:47;13.10;99.90
21811;DHT22;11067;48.788;9.208;2023-10-08T02:47:14;13.10;99.90
21811;DHT22;11067;48.788;9.208;2023-10-08T02:49:42;13.00;99.90
21811;DHT22;11067;48.788;9.208;2023-10-08T02:52:07;13.00;99.90
21811;DHT22;11067;48.788;9.208;2023-10-08T02:54:36;12.90;99.90
21811;DHT22;11067;48.788;9.208;2023-10-08T02:57:03;12.90;99.90
21811;DHT22;11067;48.788;9.208;2023-10-08T02:59:30;12.80;99.90
21811;DHT22;11067;48.788;9.208;2023-10-08T03:02:13;12.80;99.90
21811;DHT22;11067;48.788;9.208;2023-10-08T03:04:49;12.70;99.90
21811;DHT22;11067;48.788;9.208;2023-10-08T03:07:17;12.70;99.90
21811;DHT22;11067;48.788;9.208;2023-10-08T03:09:58;12.60;99.90
21811;DHT22;11067;48.788;9.208;2023-10-08T03:12:43;12.60;99.90
21811;DHT22;11067;48.788;9.208;2023-10-08T03:15:09;12.50;99.90
21811;DHT22;11067;48.788;9.208;2023-10-08T03:17:53;12.40;99.90
21811;DHT22;11067;48.788;9.208;2023-10-08T03:20:19;12.30;99.90
21811;DHT22;11067;48.788;9.208;2023-10-08T03:23:16;12.40;99.90
21811;DHT22;11067;48.788;9.208;2023-10-08T03:25:55;12.60;99.90
21811;DHT22;11067;48.788;9.208;2023-10-08T03:28:24;12.60;99.90
21811;DHT22;11067;48.788;9.208;2023-10-08T03:30:54;12.70;99.90
21811;DHT22;11067;48.788;9.208;2023-10-08T03:33:33;12.60;99.90
21811;DHT22;11067;48.788;9.208;2023-10-08T03:36:00;12.60;99.90
21811;DHT22;11067;48.788;9.208;2023-10-08T03:38:29;12.60;99.90
21811;DHT22;11067;48.788;9.208;2023-10-08T03:41:10;12.50;99.90
21811;DHT22;11067;48.788;9.208;2023-10-08T03:43:44;12.50;99.90
21811;DHT22;11067;48.788;9.208;2023-10-08T03:46:32;12.40;99.90
21811;DHT22;11067;48.788;9.208;2023-10-08T03:49:05;12.40;99.90
21811;DHT22;11067;48.788;9.208;2023-10-08T03:51:37;12.50;99.90
21811;DHT22;11067;48.788;9.208;2023-10-08T03:54:08;12.40;99.90
21811;DHT22;11067;48.788;9.208;2023-10-08T03:56:44;12.40;99.90
21811;DHT22;11067;48.788;9.208;2023-10-08T03:59:16;12.40;99.90
21811;DHT22;11067;48.788;9.208;2023-10-08T04:01:55;12.50;99.90
21811;DHT22;11067;48.788;9.208;2023-10-08T04:04:24;12.40;99.90
21811;DHT22;11067;48.788;9.208;2023-10-08T04:06:56;12.40;99.90
21811;DHT22;11067;48.788;9.208;2023-10-08T04:09:42;12.40;99.90
21811;DHT22;11067;48.788;9.208;2023-10-08T04:12:07;12.30;99.90
21811;DHT22;11067;48.788;9.208;2023-10-08T04:14:36;12.20;99.90
21811;DHT22;11067;48.788;9.208;2023-10-08T04:17:02;12.10;99.90
21811;DHT22;11067;48.788;9.208;2023-10-08T04:19:29;12.00;99.90
21811;DHT22;11067;48.788;9.208;2023-10-08T04:21:56;12.00;99.90
21811;DHT22;11067;48.788;9.208;2023-10-08T04:24:23;12.10;99.90
21811;DHT22;11067;48.788;9.208;2023-10-08T04:27:02;12.20;99.90
21811;DHT22;11067;48.788;9.208;2023-10-08T04:29:31;12.10;99.90
21811;DHT22;11067;48.788;9.208;2023-10-08T04:32:02;12.10;99.90
21811;DHT22;11067;48.788;9.208;2023-10-08T04:34:33;12.10;99.90
21811;DHT22;11067;48.788;9.208;2023-10-08T04:36:59;12.20;99.90
21811;DHT22;11067;48.788;9.208;2023-10-08T04:39:29;12.20;99.90
21811;DHT22;11067;48.788;9.208;2023-10-08T04:41:59;12.20;99.90
21811;DHT22;11067;48.788;9.208;2023-10-08T04:44:31;12.20;99.90
21811;DHT22;11067;48.788;9.208;2023-10-08T04:46:57;12.20;99.90
21811;DHT22;11067;48.788;9.208;2023-10-08T04:49:30;12.10;99.90
21811;DHT22;11067;48.788;9.208;2023-10-08T04:52:02;12.10;99.90
21811;DHT22;11067;48.788;9.208;2023-10-08T04:54:34;12.10;99.90
21811;DHT22;11067;48.788;9.208;2023-10-08T04:57:06;12.00;99.90
21811;DHT22;11067;48.788;9.208;2023-10-08T04:59:32;12.00;99.90
21811;DHT22;11067;48.788;9.208;2023-10-08T05:02:00;11.90;99.90
21811;DHT22;11067;48.788;9.208;2023-10-08T05:04:39;11.90;99.90
21811;DHT22;11067;48.788;9.208;2023-10-08T05:07:17;12.00;99.90
21811;DHT22;11067;48.788;9.208;2023-10-08T05:09:49;12.00;99.90
21811;DHT22;11067;48.788;9.208;2023-10-08T05:12:36;11.90;99.90
21811;DHT22;11067;48.788;9.208;2023-10-08T05:15:12;11.90;99.90
21811;DHT22;11067;48.788;9.208;2023-10-08T05:17:39;11.90;99.90
21811;DHT22;11067;48.788;9.208;2023-10-08T05:20:17;11.80;99.90
21811;DHT22;11067;48.788;9.208;2023-10-08T05:23:12;11.80;99.90
21811;DHT22;11067;48.788;9.208;2023-10-08T05:26:03;11.90;99.90
21811;DHT22;11067;48.788;9.208;2023-10-08T05:28:40;11.90;99.90
21811;DHT22;11067;48.788;9.208;2023-10-08T05:31:29;11.90;99.90
21811;DHT22;11067;48.788;9.208;2023-10-08T05:34:07;11.80;99.90
21811;DHT22;11067;48.788;9.208;2023-10-08T05:36:58;11.80;99.90
21811;DHT22;11067;48.788;9.208;2023-10-08T05:39:29;11.80;99.90
21811;DHT22;11067;48.788;9.208;2023-10-08T05:41:57;11.80;99.90
21811;DHT22;11067;48.788;9.208;2023-10-08T05:44:43;11.80;99.90
21811;DHT22;11067;48.788;9.208;2023-10-08T05:47:32;11.80;99.90
21811;DHT22;11067;48.788;9.208;2023-10-08T05:49:57;11.80;99.90
21811;DHT22;11067;48.788;9.208;2023-10-08T05:52:45;11.80;99.90
21811;DHT22;11067;48.788;9.208;2023-10-08T05:55:23;11.80;99.90
21811;DHT22;11067;48.788;9.208;2023-10-08T05:57:59;11.90;99.90
21811;DHT22;11067;48.788;9.208;2023-10-08T06:00:40;11.90;99.90
21811;DHT22;11067;48.788;9.208;2023-10-08T06:03:28;11.90;99.90
21811;DHT22;11067;48.788;9.208;2023-10-08T06:06:13;11.80;99.90
21811;DHT22;11067;48.788;9.208;2023-10-08T06:08:41;11.90;99.90
21811;DHT22;11067;48.788;9.208;2023-10-08T06:11:25;11.90;99.90
21811;DHT22;11067;48.788;9.208;2023-10-08T06:14:10;11.90;99.90
21811;DHT22;11067;48.788;9.208;2023-10-08T06:16:43;11.90;99.90
21811;DHT22;11067;48.788;9.208;2023-10-08T06:19:27;12.00;99.90
21811;DHT22;11067;48.788;9.208;2023-10-08T06:21:52;12.00;99.90
21811;DHT22;11067;48.788;9.208;2023-10-08T06:24:18;12.10;99.90
21811;DHT22;11067;48.788;9.208;2023-10-08T06:26:46;12.10;99.90
21811;DHT22;11067;48.788;9.208;2023-10-08T06:29:14;12.10;99.90
21811;DHT22;11067;48.788;9.208;2023-10-08T06:31:57;12.10;99.90
21811;DHT22;11067;48.788;9.208;2023-10-08T06:34:23;12.20;99.90
21811;DHT22;11067;48.788;9.208;2023-10-08T06:36:53;12.20;99.90
21811;DHT22;11067;48.788;9.208;2023-10-08T06:39:23;12.30;99.90
21811;DHT22;11067;48.788;9.208;2023-10-08T06:41:59;12.20;99.90
21811;DHT22;11067;48.788;9.208;2023-10-08T06:44:25;12.30;99.90
21811;DHT22;11067;48.788;9.208;2023-10-08T06:46:51;12.20;99.90
21811;DHT22;11067;48.788;9.208;2023-10-08T06:49:22;12.30;99.90
21811;DHT22;11067;48.788;9.208;2023-10-08T06:51:51;12.30;99.90
21811;DHT22;11067;48.788;9.208;2023-10-08T06:54:17;12.30;99.90
21811;DHT22;11067;48.788;9.208;2023-10-08T06:56:44;12.30;99.90
21811;DHT22;11067;48.788;9.208;2023-10-08T06:59:14;12.30;99.90
21811;DHT22;11067;48.788;9.208;2023-10-08T07:01:42;12.30;99.90
21811;DHT22;11067;48.788;9.208;2023-10-08T07:04:11;12.40;99.90
21811;DHT22;11067;48.788;9.208;2023-10-08T07:06:38;12.60;99.90
21811;DHT22;11067;48.788;9.208;2023-10-08T07:09:05;12.80;99.90
21811;DHT22;11067;48.788;9.208;2023-10-08T07:11:32;13.00;99.90
21811;DHT22;11067;48.788;9.208;2023-10-08T07:14:04;13.30;99.90
21811;DHT22;11067;48.788;9.208;2023-10-08T07:16:30;13.40;99.90
21811;DHT22;11067;48.788;9.208;2023-10-08T07:18:56;13.70;99.90
21811;DHT22;11067;48.788;9.208;2023-10-08T07:21:42;13.90;99.90
21811;DHT22;11067;48.788;9.208;2023-10-08T07:24:11;14.00;99.90
21811;DHT22;11067;48.788;9.208;2023-10-08T07:26:41;14.10;99.90
21811;DHT22;11067;48.788;9.208;2023-10-08T07:29:12;14.20;99.90
21811;DHT22;11067;48.788;9.208;2023-10-08T07:31:40;14.50;99.90
21811;DHT22;11067;48.788;9.208;2023-10-08T07:34:07;14.50;99.90
21811;DHT22;11067;48.788;9.208;2023-10-08T07:36:45;14.60;99.90
21811;DHT22;11067;48.788;9.208;2023-10-08T07:39:13;14.90;99.90
21811;DHT22;11067;48.788;9.208;2023-10-08T07:41:57;14.90;99.90
21811;DHT22;11067;48.788;9.208;2023-10-08T07:44:26;15.00;99.90
21811;DHT22;11067;48.788;9.208;2023-10-08T07:46:55;15.00;99.90
21811;DHT22;11067;48.788;9.208;2023-10-08T07:49:21;15.10;99.90
21811;DHT22;11067;48.788;9.208;2023-10-08T07:51:49;15.20;99.90
21811;DHT22;11067;48.788;9.208;2023-10-08T07:54:21;15.50;99.90
21811;DHT22;11067;48.788;9.208;2023-10-08T07:56:49;15.50;99.90
21811;DHT22;11067;48.788;9.208;2023-10-08T07:59:15;15.60;99.90
21811;DHT22;11067;48.788;9.208;2023-10-08T08:01:42;15.50;99.90
21811;DHT22;11067;48.788;9.208;2023-10-08T08:04:12;15.50;99.90
21811;DHT22;11067;48.788;9.208;2023-10-08T08:06:48;15.40;99.90
21811;DHT22;11067;48.788;9.208;2023-10-08T08:09:16;15.50;99.90
21811;DHT22;11067;48.788;9.208;2023-10-08T08:11:44;15.50;99.90
21811;DHT22;11067;48.788;9.208;2023-10-08T08:14:13;15.60;99.90
21811;DHT22;11067;48.788;9.208;2023-10-08T08:16:45;15.80;99.90
21811;DHT22;11067;48.788;9.208;2023-10-08T08:19:16;15.90;99.90
21811;DHT22;11067;48.788;9.208;2023-10-08T08:21:45;15.80;99.90
21811;DHT22;11067;48.788;9.208;2023-10-08T08:24:12;15.70;99.90
21811;DHT22;11067;48.788;9.208;2023-10-08T08:26:38;15.70;99.90
21811;DHT22;11067;48.788;9.208;2023-10-08T08:29:27;15.70;99.90
21811;DHT22;11067;48.788;9.208;2023-10-08T08:31:52;15.80;99.90
21811;DHT22;11067;48.788;9.208;2023-10-08T08:34:18;15.80;99.90
21811;DHT22;11067;48.788;9.208;2023-10-08T08:36:47;16.00;99.90
21811;DHT22;11067;48.788;9.208;2023-10-08T08:39:17;16.10;99.90
21811;DHT22;11067;48.788;9.208;2023-10-08T08:41:59;16.20;99.90
21811;DHT22;11067;48.788;9.208;2023-10-08T08:44:28;16.20;99.90
21811;DHT22;11067;48.788;9.208;2023-10-08T08:46:58;16.40;99.90
21811;DHT22;11067;48.788;9.208;2023-10-08T08:49:33;16.80;99.90
21811;DHT22;11067;48.788;9.208;2023-10-08T08:52:00;16.90;99.90
21811;DHT22;11067;48.788;9.208;2023-10-08T08:54:27;17.10;99.90
21811;DHT22;11067;48.788;9.208;2023-10-08T08:56:53;17.40;99.90
21811;DHT22;11067;48.788;9.208;2023-10-08T08:59:20;17.50;99.90
21811;DHT22;11067;48.788;9.208;2023-10-08T09:01:46;17.60;99.90
21811;DHT22;11067;48.788;9.208;2023-10-08T09:04:12;17.80;99.90
21811;DHT22;11067;48.788;9.208;2023-10-08T09:06:42;18.10;99.90
21811;DHT22;11067;48.788;9.208;2023-10-08T09:09:07;18.40;99.90
21811;DHT22;11067;48.788;9.208;2023-10-08T09:11:50;18.50;99.90
21811;DHT22;11067;48.788;9.208;2023-10-08T09:14:24;18.70;99.90
21811;DHT22;11067;48.788;9.208;2023-10-08T09:16:56;19.00;99.90
21811;DHT22;11067;48.788;9.208;2023-10-08T09:19:23;19.30;99.90
21811;DHT22;11067;48.788;9.208;2023-10-08T09:22:10;19.80;99.90
21811;DHT22;11067;48.788;9.208;2023-10-08T09:24:39;20.00;98.70
21811;DHT22;11067;48.788;9.208;2023-10-08T09:27:08;20.10;97.30
21811;DHT22;11067;48.788;9.208;2023-10-08T09:29:35;20.40;96.30
21811;DHT22;11067;48.788;9.208;2023-10-08T09:32:12;20.80;93.50
21811;DHT22;11067;48.788;9.208;2023-10-08T09:34:48;21.00;92.70
21811;DHT22;11067;48.788;9.208;2023-10-08T09:37:17;21.00;91.60
21811;DHT22;11067;48.788;9.208;2023-10-08T09:39:43;20.90;91.10
21811;DHT22;11067;48.788;9.208;2023-10-08T09:42:11;21.20;91.80
21811;DHT22;11067;48.788;9.208;2023-10-08T09:44:38;21.60;92.20
21811;DHT22;11067;48.788;9.208;2023-10-08T09:47:08;21.50;92.30
21811;DHT22;11067;48.788;9.208;2023-10-08T09:49:40;21.30;92.70
21811;DHT22;11067;48.788;9.208;2023-10-08T09:52:09;20.90;93.50
21811;DHT22;11067;48.788;9.208;2023-10-08T09:54:51;21.10;92.80
21811;DHT22;11067;48.788;9.208;2023-10-08T09:57:20;20.90;94.00
21811;DHT22;11067;48.788;9.208;2023-10-08T09:59:49;20.70;95.70
21811;DHT22;11067;48.788;9.208;2023-10-08T10:02:16;20.60;95.10
21811;DHT22;11067;48.788;9.208;2023-10-08T10:04:43;20.70;95.70
21811;DHT22;11067;48.788;9.208;2023-10-08T10:07:14;20.80;95.10
21811;DHT22;11067;48.788;9.208;2023-10-08T10:09:45;21.10;94.00
21811;DHT22;11067;48.788;9.208;2023-10-08T10:12:12;21.10;93.60
21811;DHT22;11067;48.788;9.208;2023-10-08T10:14:47;21.00;93.70
21811;DHT22;11067;48.788;9.208;2023-10-08T10:17:24;21.10;93.10
21811;DHT22;11067;48.788;9.208;2023-10-08T10:22:33;21.00;93.60
21811;DHT22;11067;48.788;9.208;2023-10-08T10:25:03;21.30;93.20
21811;DHT22;11067;48.788;9.208;2023-10-08T10:27:41;21.50;93.20
21811;DHT22;11067;48.788;9.208;2023-10-08T10:30:08;21.50;92.80
21811;DHT22;11067;48.788;9.208;2023-10-08T10:32:38;21.40;92.90
21811;DHT22;11067;48.788;9.208;2023-10-08T10:35:04;21.30;92.40
21811;DHT22;11067;48.788;9.208;2023-10-08T10:37:37;21.50;92.90
21811;DHT22;11067;48.788;9.208;2023-10-08T10:40:22;21.60;92.90
21811;DHT22;11067;48.788;9.208;2023-10-08T10:43:20;21.90;91.50
21811;DHT22;11067;48.788;9.208;2023-10-08T10:45:46;21.50;92.30
21811;DHT22;11067;48.788;9.208;2023-10-08T10:48:13;21.50;92.00
21811;DHT22;11067;48.788;9.208;2023-10-08T10:50:49;21.40;92.40
21811;DHT22;11067;48.788;9.208;2023-10-08T10:53:32;21.40;92.30
21811;DHT22;11067;48.788;9.208;2023-10-08T10:55:59;21.60;93.20
21811;DHT22;11067;48.788;9.208;2023-10-08T10:58:35;21.50;92.50
21811;DHT22;11067;48.788;9.208;2023-10-08T11:01:06;21.80;93.30
21811;DHT22;11067;48.788;9.208;2023-10-08T11:03:51;22.10;93.40
21811;DHT22;11067;48.788;9.208;2023-10-08T11:06:18;22.00;93.20
21811;DHT22;11067;48.788;9.208;2023-10-08T11:08:49;22.00;92.90
21811;DHT22;11067;48.788;9.208;2023-10-08T11:11:17;22.00;92.60
21811;DHT22;11067;48.788;9.208;2023-10-08T11:13:43;21.90;92.70
21811;DHT22;11067;48.788;9.208;2023-10-08T11:16:12;22.10;92.70
21811;DHT22;11067;48.788;9.208;2023-10-08T11:18:44;21.90;93.10
21811;DHT22;11067;48.788;9.208;2023-10-08T11:21:12;21.80;93.50
21811;DHT22;11067;48.788;9.208;2023-10-08T11:23:50;21.70;93.50
21811;DHT22;11067;48.788;9.208;2023-10-08T11:26:20;21.70;93.40
21811;DHT22;11067;48.788;9.208;2023-10-08T11:28:47;21.70;92.90
21811;DHT22;11067;48.788;9.208;2023-10-08T11:31:17;21.90;93.10
21811;DHT22;11067;48.788;9.208;2023-10-08T11:33:46;22.00;93.10
21811;DHT22;11067;48.788;9.208;2023-10-08T11:36:22;22.00;92.90
21811;DHT22;11067;48.788;9.208;2023-10-08T11:38:54;22.10;92.90
21811;DHT22;11067;48.788;9.208;2023-10-08T11:41:26;22.20;91.60
21811;DHT22;11067;48.788;9.208;2023-10-08T11:43:54;22.40;92.40
21811;DHT22;11067;48.788;9.208;2023-10-08T11:46:26;22.30;92.30
21811;DHT22;11067;48.788;9.208;2023-10-08T11:48:54;22.30;93.30
21811;DHT22;11067;48.788;9.208;2023-10-08T11:51:23;22.30;93.00
21811;DHT22;11067;48.788;9.208;2023-10-08T11:53:49;22.20;92.60
21811;DHT22;11067;48.788;9.208;2023-10-08T11:56:15;22.10;94.00
21811;DHT22;11067;48.788;9.208;2023-10-08T11:58:41;22.20;93.80
21811;DHT22;11067;48.788;9.208;2023-10-08T12:01:10;22.30;92.90
21811;DHT22;11067;48.788;9.208;2023-10-08T12:03:41;22.40;93.80
21811;DHT22;11067;48.788;9.208;2023-10-08T12:06:09;22.40;94.00
21811;DHT22;11067;48.788;9.208;2023-10-08T12:08:36;22.60;93.60
21811;DHT22;11067;48.788;9.208;2023-10-08T12:11:05;22.80;92.90
21811;DHT22;11067;48.788;9.208;2023-10-08T12:13:39;23.00;92.50
21811;DHT22;11067;48.788;9.208;2023-10-08T12:16:10;23.00;91.20
21811;DHT22;11067;48.788;9.208;2023-10-08T12:18:43;23.00;91.60
21811;DHT22;11067;48.788;9.208;2023-10-08T12:21:09;23.10;91.40
21811;DHT22;11067;48.788;9.208;2023-10-08T12:23:41;22.90;91.40
21811;DHT22;11067;48.788;9.208;2023-10-08T12:26:09;23.10;90.50
21811;DHT22;11067;48.788;9.208;2023-10-08T12:28:35;23.20;90.00
21811;DHT22;11067;48.788;9.208;2023-10-08T12:31:02;23.20;90.20
21811;DHT22;11067;48.788;9.208;2023-10-08T12:33:29;23.40;89.40
21811;DHT22;11067;48.788;9.208;2023-10-08T12:35:55;23.50;88.50
21811;DHT22;11067;48.788;9.208;2023-10-08T12:38:21;23.60;88.70
21811;DHT22;11067;48.788;9.208;2023-10-08T12:40:50;23.80;89.30
21811;DHT22;11067;48.788;9.208;2023-10-08T12:43:22;23.90;86.40
21811;DHT22;11067;48.788;9.208;2023-10-08T12:45:49;23.80;84.70
21811;DHT22;11067;48.788;9.208;2023-10-08T12:50:47;24.10;83.50
21811;DHT22;11067;48.788;9.208;2023-10-08T12:53:28;24.10;81.90
21811;DHT22;11067;48.788;9.208;2023-10-08T12:56:02;24.30;81.40
21811;DHT22;11067;48.788;9.208;2023-10-08T12:58:35;24.60;78.70
21811;DHT22;11067;48.788;9.208;2023-10-08T13:01:07;24.70;78.10
21811;DHT22;11067;48.788;9.208;2023-10-08T13:03:35;24.80;76.00
21811;DHT22;11067;48.788;9.208;2023-10-08T13:06:07;24.60;77.90
21811;DHT22;11067;48.788;9.208;2023-10-08T13:08:37;24.60;78.50
21811;DHT22;11067;48.788;9.208;2023-10-08T13:11:03;24.70;78.80
21811;DHT22;11067;48.788;9.208;2023-10-08T13:13:30;24.60;80.50
21811;DHT22;11067;48.788;9.208;2023-10-08T13:15:56;24.60;78.50
21811;DHT22;11067;48.788;9.208;2023-10-08T13:18:23;24.80;78.00
21811;DHT22;11067;48.788;9.208;2023-10-08T13:20:54;25.00;77.70
21811;DHT22;11067;48.788;9.208;2023-10-08T13:23:20;24.90;77.30
21811;DHT22;11067;48.788;9.208;2023-10-08T13:25:52;25.00;75.70
21811;DHT22;11067;48.788;9.208;2023-10-08T13:28:24;24.90;75.40
21811;DHT22;11067;48.788;9.208;2023-10-08T13:30:55;24.90;75.80
21811;DHT22;11067;48.788;9.208;2023-10-08T13:33:21;24.70;76.40
21811;DHT22;11067;48.788;9.208;2023-10-08T13:35:50;24.80;75.50
21811;DHT22;11067;48.788;9.208;2023-10-08T13:38:19;25.00;75.40
21811;DHT22;11067;48.788;9.208;2023-10-08T13:40:49;25.10;74.00
21811;DHT22;11067;48.788;9.208;2023-10-08T13:43:44;25.30;72.40
21811;DHT22;11067;48.788;9.208;2023-10-08T13:46:17;25.30;64.40
21811;DHT22;11067;48.788;9.208;2023-10-08T13:48:44;25.30;52.20
21811;DHT22;11067;48.788;9.208;2023-10-08T13:51:19;25.40;52.60
21811;DHT22;11067;48.788;9.208;2023-10-08T13:53:55;25.30;49.90
21811;DHT22;11067;48.788;9.208;2023-10-08T13:56:31;25.30;49.00
21811;DHT22;11067;48.788;9.208;2023-10-08T13:58:58;25.30;48.50
21811;DHT22;11067;48.788;9.208;2023-10-08T14:01:42;25.40;49.00
21811;DHT22;11067;48.788;9.208;2023-10-08T14:04:11;25.40;48.80
21811;DHT22;11067;48.788;9.208;2023-10-08T14:06:38;25.20;49.10
21811;DHT22;11067;48.788;9.208;2023-10-08T14:09:06;25.30;48.60
21811;DHT22;11067;48.788;9.208;2023-10-08T14:11:34;25.30;49.50
21811;DHT22;11067;48.788;9.208;2023-10-08T14:14:00;25.30;49.50
21811;DHT22;11067;48.788;9.208;2023-10-08T14:16:28;25.20;49.70
21811;DHT22;11067;48.788;9.208;2023-10-08T14:18:55;25.10;49.50
21811;DHT22;11067;48.788;9.208;2023-10-08T14:21:21;25.20;50.00
21811;DHT22;11067;48.788;9.208;2023-10-08T14:23:52;25.10;48.90
21811;DHT22;11067;48.788;9.208;2023-10-08T14:26:18;25.10;49.40
21811;DHT22;11067;48.788;9.208;2023-10-08T14:28:48;25.00;48.00
21811;DHT22;11067;48.788;9.208;2023-10-08T14:31:19;25.00;47.60
21811;DHT22;11067;48.788;9.208;2023-10-08T14:33:48;25.00;48.00
21811;DHT22;11067;48.788;9.208;2023-10-08T14:36:33;24.90;48.50
21811;DHT22;11067;48.788;9.208;2023-10-08T14:39:18;24.80;49.60
21811;DHT22;11067;48.788;9.208;2023-10-08T14:42:02;24.70;49.90
21811;DHT22;11067;48.788;9.208;2023-10-08T14:44:46;24.70;51.70
21811;DHT22;11067;48.788;9.208;2023-10-08T14:47:12;24.70;51.50
21811;DHT22;11067;48.788;9.208;2023-10-08T14:49:38;24.70;51.60
21811;DHT22;11067;48.788;9.208;2023-10-08T14:52:04;24.70;51.10
21811;DHT22;11067;48.788;9.208;2023-10-08T14:54:30;24.70;51.60
21811;DHT22;11067;48.788;9.208;2023-10-08T14:56:57;24.60;52.00
21811;DHT22;11067;48.788;9.208;2023-10-08T14:59:23;24.60;51.50
21811;DHT22;11067;48.788;9.208;2023-10-08T15:01:49;24.60;51.60
21811;DHT22;11067;48.788;9.208;2023-10-08T15:04:15;24.60;50.80
21811;DHT22;11067;48.788;9.208;2023-10-08T15:06:41;24.50;50.60
21811;DHT22;11067;48.788;9.208;2023-10-08T15:09:08;24.40;50.10
21811;DHT22;11067;48.788;9.208;2023-10-08T15:11:35;24.50;52.80
21811;DHT22;11067;48.788;9.208;2023-10-08T15:14:02;24.40;58.20
21811;DHT22;11067;48.788;9.208;2023-10-08T15:16:36;24.50;57.20
21811;DHT22;11067;48.788;9.208;2023-10-08T15:19:01;24.60;66.50
21811;DHT22;11067;48.788;9.208;2023-10-08T15:21:29;24.50;75.10
21811;DHT22;11067;48.788;9.208;2023-10-08T15:23:57;24.40;77.10
21811;DHT22;11067;48.788;9.208;2023-10-08T15:26:23;24.30;77.60
21811;DHT22;11067;48.788;9.208;2023-10-08T15:28:49;24.30;77.80
21811;DHT22;11067;48.788;9.208;2023-10-08T15:31:14;24.20;80.40
21811;DHT22;11067;48.788;9.208;2023-10-08T15:33:40;24.20;76.90
21811;DHT22;11067;48.788;9.208;2023-10-08T15:36:06;24.00;86.50
21811;DHT22;11067;48.788;9.208;2023-10-08T15:38:31;23.90;89.20
21811;DHT22;11067;48.788;9.208;2023-10-08T15:40:57;23.90;81.30
21811;DHT22;11067;48.788;9.208;2023-10-08T15:43:24;23.80;78.70
21811;DHT22;11067;48.788;9.208;2023-10-08T15:45:51;23.70;73.60
21811;DHT22;11067;48.788;9.208;2023-10-08T15:48:17;23.70;69.70
21811;DHT22;11067;48.788;9.208;2023-10-08T15:50:43;23.70;72.50
21811;DHT22;11067;48.788;9.208;2023-10-08T15:53:08;23.60;75.10
21811;DHT22;11067;48.788;9.208;2023-10-08T15:55:35;23.60;77.00
21811;DHT22;11067;48.788;9.208;2023-10-08T15:58:00;23.60;78.70